createdAt,value
2023-06-17T00:32:14.964Z,13.6
2023-06-17T00:42:15.660Z,13.4
2023-06-17T04:12:27.608Z,11
2023-06-17T04:22:27.825Z,11.2
2023-06-17T04:32:27.998Z,11.4
2023-06-17T05:12:30.443Z,12.8
2023-06-17T05:32:31.808Z,13.8
2023-06-17T05:52:32.953Z,14.9
2023-06-17T06:12:33.971Z,17.2
2023-06-17T06:32:34.678Z,18.7
2023-06-17T06:52:35.782Z,19.5
2023-06-17T07:02:36.826Z,20.4
2023-06-17T07:22:38.501Z,21.8
2023-06-17T07:42:40.179Z,22.1
2023-06-17T07:52:40.398Z,22.7
2023-06-17T08:02:40.696Z,23.1
2023-06-17T08:12:40.811Z,23.2
2023-06-17T08:22:41.625Z,23.5
2023-06-17T08:32:41.815Z,23.9
2023-06-17T08:42:42.008Z,24
2023-06-17T08:52:42.508Z,24.3
2023-06-17T09:02:43.575Z,24.7
2023-06-17T09:12:43.879Z,25.2
2023-06-17T09:22:44.579Z,25.5
2023-06-17T09:32:44.761Z,25
2023-06-17T09:42:45.008Z,25.2
2023-06-17T09:52:45.988Z,25.6
2023-06-17T10:12:46.662Z,25.6
2023-06-17T10:22:47.193Z,26.5
2023-06-17T10:32:48.596Z,26.9
2023-06-17T10:42:48.221Z,26.8
2023-06-17T10:52:48.637Z,26.5
2023-06-17T11:02:49.373Z,27
2023-06-17T11:22:50.507Z,26.6
2023-06-17T11:32:51.336Z,27
2023-06-17T11:42:51.508Z,27.2
2023-06-17T11:52:51.998Z,27.5
2023-06-17T12:02:53.023Z,27.4
2023-06-17T12:12:53.672Z,27.6
2023-06-17T12:22:53.766Z,27.3
2023-06-17T12:32:54.138Z,27.5
2023-06-17T12:42:55.190Z,27.8
2023-06-17T12:52:56.264Z,27.9
2023-06-17T13:02:56.706Z,28.2
2023-06-17T13:12:57.090Z,28.4
2023-06-17T13:22:57.409Z,28.4
2023-06-17T13:32:57.938Z,27.8
2023-06-17T13:42:58.597Z,27.9
2023-06-17T13:52:59.168Z,28.1
2023-06-17T14:02:59.443Z,28.5
2023-06-17T14:23:00.068Z,28.8
2023-06-17T14:43:01.175Z,28.2
2023-06-17T15:03:02.520Z,28
2023-06-17T15:13:03.400Z,28
2023-06-17T15:23:04.115Z,28.2
2023-06-17T15:33:04.271Z,27.9
2023-06-17T15:43:04.794Z,28
2023-06-17T15:53:05.421Z,28.1
2023-06-17T16:03:05.882Z,28.4
2023-06-17T16:13:07.911Z,28.9
2023-06-17T16:23:07.069Z,29.2
2023-06-17T16:33:07.565Z,28.8
2023-06-17T16:43:08.296Z,28.9
2023-06-17T17:03:09.205Z,27.8
2023-06-17T17:13:10.082Z,27.6
2023-06-17T17:23:11.037Z,27.5
2023-06-17T17:33:12.105Z,27.3
2023-06-17T17:43:12.525Z,27.1
2023-06-17T17:53:13.285Z,27
2023-06-17T18:03:13.656Z,26.9
2023-06-17T18:13:14.550Z,26.7
2023-06-17T18:23:15.239Z,26.5
2023-06-17T18:33:16.308Z,26.3
2023-06-17T18:43:16.729Z,25.9
2023-06-17T18:53:17.719Z,25.6
2023-06-17T19:03:18.443Z,25.2
2023-06-17T19:13:18.942Z,24.9
2023-06-17T19:23:19.975Z,24.6
2023-06-17T19:33:20.281Z,24.3
2023-06-17T19:53:21.928Z,22.9
2023-06-17T20:03:22.562Z,22.4
2023-06-17T20:13:23.479Z,22
2023-06-17T20:23:24.013Z,21.6
2023-06-17T20:33:24.096Z,21.2
2023-06-17T20:43:24.994Z,20.8
2023-06-17T20:53:25.645Z,20.4
2023-06-17T21:03:25.885Z,20.1
2023-06-17T21:13:26.222Z,19.9
2023-06-17T21:23:27.249Z,19.6
2023-06-17T21:33:28.041Z,19.3
2023-06-17T21:43:28.643Z,19.2
2023-06-17T21:53:29.734Z,19.1
2023-06-17T22:03:30.482Z,18.8
2023-06-17T22:13:30.801Z,18.7
2023-06-17T22:23:31.570Z,18.6
2023-06-17T22:43:33.384Z,18.2
2023-06-17T23:43:36.378Z,18.4
